sensor_id;sensor_type;location;lat;lon;timestamp;temperature;humidity
34989;DHT22;21192;40.182;44.516;2023-08-24T00:00:41;25.70;56.60
34989;DHT22;21192;40.182;44.516;2023-08-24T00:03:07;25.60;56.20
34989;DHT22;21192;40.182;44.516;2023-08-24T00:05:37;25.60;55.90
34989;DHT22;21192;40.182;44.516;2023-08-24T00:08:11;25.60;55.70
34989;DHT22;21192;40.182;44.516;2023-08-24T00:10:37;25.50;55.40
34989;DHT22;21192;40.182;44.516;2023-08-24T00:13:03;25.50;55.30
34989;DHT22;21192;40.182;44.516;2023-08-24T00:15:30;25.50;55.10
34989;DHT22;21192;40.182;44.516;2023-08-24T00:17:56;25.50;54.80
34989;DHT22;21192;40.182;44.516;2023-08-24T00:20:22;25.50;54.60
34989;DHT22;21192;40.182;44.516;2023-08-24T00:22:48;25.40;54.50
34989;DHT22;21192;40.182;44.516;2023-08-24T00:25:14;25.40;54.50
34989;DHT22;21192;40.182;44.516;2023-08-24T00:27:40;25.40;54.40
34989;DHT22;21192;40.182;44.516;2023-08-24T00:30:07;25.40;54.30
34989;DHT22;21192;40.182;44.516;2023-08-24T00:32:34;25.40;54.00
34989;DHT22;21192;40.182;44.516;2023-08-24T00:35:04;25.40;53.80
34989;DHT22;21192;40.182;44.516;2023-08-24T00:37:34;25.30;53.60
34989;DHT22;21192;40.182;44.516;2023-08-24T00:40:00;25.30;53.40
34989;DHT22;21192;40.182;44.516;2023-08-24T00:42:29;25.30;53.50
34989;DHT22;21192;40.182;44.516;2023-08-24T00:44:55;25.40;53.40
34989;DHT22;21192;40.182;44.516;2023-08-24T00:47:21;25.30;53.10
34989;DHT22;21192;40.182;44.516;2023-08-24T00:49:47;25.30;53.00
34989;DHT22;21192;40.182;44.516;2023-08-24T00:52:13;25.40;53.60
34989;DHT22;21192;40.182;44.516;2023-08-24T00:54:40;25.40;52.90
34989;DHT22;21192;40.182;44.516;2023-08-24T00:57:06;25.40;52.80
34989;DHT22;21192;40.182;44.516;2023-08-24T00:59:34;25.40;53.40
34989;DHT22;21192;40.182;44.516;2023-08-24T01:02:00;25.40;52.80
34989;DHT22;21192;40.182;44.516;2023-08-24T01:04:26;25.30;52.80
34989;DHT22;21192;40.182;44.516;2023-08-24T01:06:52;25.30;53.20
34989;DHT22;21192;40.182;44.516;2023-08-24T01:09:19;25.30;52.80
34989;DHT22;21192;40.182;44.516;2023-08-24T01:12:00;25.30;52.90
34989;DHT22;21192;40.182;44.516;2023-08-24T01:17:15;25.20;53.00
34989;DHT22;21192;40.182;44.516;2023-08-24T01:19:43;25.20;53.00
34989;DHT22;21192;40.182;44.516;2023-08-24T01:27:49;25.20;53.20
34989;DHT22;21192;40.182;44.516;2023-08-24T01:30:15;25.20;53.30
34989;DHT22;21192;40.182;44.516;2023-08-24T01:32:43;25.20;53.40
34989;DHT22;21192;40.182;44.516;2023-08-24T01:35:10;25.10;53.50
34989;DHT22;21192;40.182;44.516;2023-08-24T01:37:36;25.10;53.40
34989;DHT22;21192;40.182;44.516;2023-08-24T01:40:13;25.10;53.30
34989;DHT22;21192;40.182;44.516;2023-08-24T01:43:04;25.10;53.30
34989;DHT22;21192;40.182;44.516;2023-08-24T01:45:32;25.00;53.30
34989;DHT22;21192;40.182;44.516;2023-08-24T01:48:02;25.00;53.40
34989;DHT22;21192;40.182;44.516;2023-08-24T01:50:30;25.00;53.40
34989;DHT22;21192;40.182;44.516;2023-08-24T01:52:56;25.00;53.50
34989;DHT22;21192;40.182;44.516;2023-08-24T01:55:23;25.00;53.40
34989;DHT22;21192;40.182;44.516;2023-08-24T01:57:49;25.00;53.40
34989;DHT22;21192;40.182;44.516;2023-08-24T02:00:15;25.00;53.60
34989;DHT22;21192;40.182;44.516;2023-08-24T02:02:44;25.00;53.60
34989;DHT22;21192;40.182;44.516;2023-08-24T02:05:10;25.00;53.50
34989;DHT22;21192;40.182;44.516;2023-08-24T02:07:36;25.00;53.60
34989;DHT22;21192;40.182;44.516;2023-08-24T02:10:02;25.00;53.90
34989;DHT22;21192;40.182;44.516;2023-08-24T02:12:28;25.00;54.20
34989;DHT22;21192;40.182;44.516;2023-08-24T02:14:54;25.00;54.30
34989;DHT22;21192;40.182;44.516;2023-08-24T02:17:19;25.00;54.50
34989;DHT22;21192;40.182;44.516;2023-08-24T02:19:45;25.00;54.80
34989;DHT22;21192;40.182;44.516;2023-08-24T02:22:11;25.00;55.10
34989;DHT22;21192;40.182;44.516;2023-08-24T02:24:37;25.00;55.30
34989;DHT22;21192;40.182;44.516;2023-08-24T02:27:03;25.10;55.50
34989;DHT22;21192;40.182;44.516;2023-08-24T02:29:29;25.10;55.60
34989;DHT22;21192;40.182;44.516;2023-08-24T02:31:55;25.20;55.60
34989;DHT22;21192;40.182;44.516;2023-08-24T02:34:21;25.20;55.60
34989;DHT22;21192;40.182;44.516;2023-08-24T02:36:47;25.20;55.80
34989;DHT22;21192;40.182;44.516;2023-08-24T02:39:13;25.30;56.60
34989;DHT22;21192;40.182;44.516;2023-08-24T02:41:39;25.40;56.10
34989;DHT22;21192;40.182;44.516;2023-08-24T02:44:05;25.40;56.10
34989;DHT22;21192;40.182;44.516;2023-08-24T02:46:30;25.50;56.20
34989;DHT22;21192;40.182;44.516;2023-08-24T02:48:56;25.60;56.20
34989;DHT22;21192;40.182;44.516;2023-08-24T02:51:23;25.70;56.10
34989;DHT22;21192;40.182;44.516;2023-08-24T02:53:51;25.80;55.80
34989;DHT22;21192;40.182;44.516;2023-08-24T02:56:17;25.90;55.60
34989;DHT22;21192;40.182;44.516;2023-08-24T02:58:43;26.30;55.30
34989;DHT22;21192;40.182;44.516;2023-08-24T03:01:09;27.10;54.20
34989;DHT22;21192;40.182;44.516;2023-08-24T03:03:36;28.10;52.80
34989;DHT22;21192;40.182;44.516;2023-08-24T03:06:04;29.00;51.20
34989;DHT22;21192;40.182;44.516;2023-08-24T03:08:30;29.90;49.70
34989;DHT22;21192;40.182;44.516;2023-08-24T03:11:00;30.80;48.50
34989;DHT22;21192;40.182;44.516;2023-08-24T03:13:27;31.70;47.50
34989;DHT22;21192;40.182;44.516;2023-08-24T03:15:53;32.30;46.20
34989;DHT22;21192;40.182;44.516;2023-08-24T03:18:20;33.10;45.00
34989;DHT22;21192;40.182;44.516;2023-08-24T03:20:47;33.90;43.80
34989;DHT22;21192;40.182;44.516;2023-08-24T03:23:13;34.70;42.50
34989;DHT22;21192;40.182;44.516;2023-08-24T03:25:41;35.50;41.40
34989;DHT22;21192;40.182;44.516;2023-08-24T03:28:07;36.40;40.40
34989;DHT22;21192;40.182;44.516;2023-08-24T03:30:36;37.10;39.40
34989;DHT22;21192;40.182;44.516;2023-08-24T03:33:02;37.90;38.50
34989;DHT22;21192;40.182;44.516;2023-08-24T03:35:30;38.60;37.70
34989;DHT22;21192;40.182;44.516;2023-08-24T03:37:56;39.30;36.80
34989;DHT22;21192;40.182;44.516;2023-08-24T03:40:22;40.00;36.00
34989;DHT22;21192;40.182;44.516;2023-08-24T03:42:48;40.50;35.40
34989;DHT22;21192;40.182;44.516;2023-08-24T03:45:14;40.80;35.00
34989;DHT22;21192;40.182;44.516;2023-08-24T03:47:39;41.30;34.50
34989;DHT22;21192;40.182;44.516;2023-08-24T03:50:06;41.90;33.90
34989;DHT22;21192;40.182;44.516;2023-08-24T03:52:32;42.40;33.40
34989;DHT22;21192;40.182;44.516;2023-08-24T03:54:58;43.00;32.80
34989;DHT22;21192;40.182;44.516;2023-08-24T03:57:24;43.60;32.40
34989;DHT22;21192;40.182;44.516;2023-08-24T03:59:50;44.30;31.80
34989;DHT22;21192;40.182;44.516;2023-08-24T04:02:16;44.90;31.20
34989;DHT22;21192;40.182;44.516;2023-08-24T04:04:43;45.30;30.90
34989;DHT22;21192;40.182;44.516;2023-08-24T04:07:09;45.80;30.50
34989;DHT22;21192;40.182;44.516;2023-08-24T04:09:34;46.40;30.00
34989;DHT22;21192;40.182;44.516;2023-08-24T04:12:00;46.90;29.70
34989;DHT22;21192;40.182;44.516;2023-08-24T04:14:26;47.30;29.60
34989;DHT22;21192;40.182;44.516;2023-08-24T04:16:52;47.80;29.30
34989;DHT22;21192;40.182;44.516;2023-08-24T04:19:18;48.40;28.80
34989;DHT22;21192;40.182;44.516;2023-08-24T04:21:44;48.70;28.50
34989;DHT22;21192;40.182;44.516;2023-08-24T04:24:09;49.00;28.30
34989;DHT22;21192;40.182;44.516;2023-08-24T04:26:35;49.20;28.10
34989;DHT22;21192;40.182;44.516;2023-08-24T04:29:02;49.40;28.00
34989;DHT22;21192;40.182;44.516;2023-08-24T04:31:27;49.70;27.80
34989;DHT22;21192;40.182;44.516;2023-08-24T04:33:53;50.00;27.60
34989;DHT22;21192;40.182;44.516;2023-08-24T04:36:19;50.20;27.50
34989;DHT22;21192;40.182;44.516;2023-08-24T04:38:45;50.60;27.30
34989;DHT22;21192;40.182;44.516;2023-08-24T04:41:11;50.70;27.10
34989;DHT22;21192;40.182;44.516;2023-08-24T04:43:37;51.00;27.10
34989;DHT22;21192;40.182;44.516;2023-08-24T04:46:03;51.20;27.00
34989;DHT22;21192;40.182;44.516;2023-08-24T04:48:29;51.10;26.90
34989;DHT22;21192;40.182;44.516;2023-08-24T04:51:03;50.60;26.90
34989;DHT22;21192;40.182;44.516;2023-08-24T04:53:29;50.80;26.90
34989;DHT22;21192;40.182;44.516;2023-08-24T04:55:55;50.40;27.00
34989;DHT22;21192;40.182;44.516;2023-08-24T04:58:21;50.30;27.00
34989;DHT22;21192;40.182;44.516;2023-08-24T05:00:48;50.40;27.00
34989;DHT22;21192;40.182;44.516;2023-08-24T05:03:14;50.20;27.20
34989;DHT22;21192;40.182;44.516;2023-08-24T05:05:40;50.40;27.00
34989;DHT22;21192;40.182;44.516;2023-08-24T05:08:06;50.20;26.80
34989;DHT22;21192;40.182;44.516;2023-08-24T05:10:35;50.10;27.10
34989;DHT22;21192;40.182;44.516;2023-08-24T05:13:01;50.10;27.10
34989;DHT22;21192;40.182;44.516;2023-08-24T05:15:28;50.00;27.10
34989;DHT22;21192;40.182;44.516;2023-08-24T05:17:54;50.30;26.90
34989;DHT22;21192;40.182;44.516;2023-08-24T05:20:27;50.60;26.80
34989;DHT22;21192;40.182;44.516;2023-08-24T05:22:53;50.50;26.80
34989;DHT22;21192;40.182;44.516;2023-08-24T05:25:22;49.90;27.10
34989;DHT22;21192;40.182;44.516;2023-08-24T05:27:48;48.40;27.50
34989;DHT22;21192;40.182;44.516;2023-08-24T05:30:14;46.70;28.40
34989;DHT22;21192;40.182;44.516;2023-08-24T05:32:40;45.50;29.40
34989;DHT22;21192;40.182;44.516;2023-08-24T05:35:06;44.50;29.80
34989;DHT22;21192;40.182;44.516;2023-08-24T05:37:33;43.00;31.20
34989;DHT22;21192;40.182;44.516;2023-08-24T05:40:02;41.20;32.50
34989;DHT22;21192;40.182;44.516;2023-08-24T05:42:28;39.70;34.20
34989;DHT22;21192;40.182;44.516;2023-08-24T05:44:55;38.40;35.20
34989;DHT22;21192;40.182;44.516;2023-08-24T05:47:20;37.40;36.30
34989;DHT22;21192;40.182;44.516;2023-08-24T05:49:46;36.70;37.10
34989;DHT22;21192;40.182;44.516;2023-08-24T05:52:12;35.90;38.00
34989;DHT22;21192;40.182;44.516;2023-08-24T05:54:38;35.40;38.70
34989;DHT22;21192;40.182;44.516;2023-08-24T05:57:04;35.10;39.40
34989;DHT22;21192;40.182;44.516;2023-08-24T05:59:32;34.60;40.10
34989;DHT22;21192;40.182;44.516;2023-08-24T06:01:59;34.40;40.60
34989;DHT22;21192;40.182;44.516;2023-08-24T06:04:25;34.10;40.90
34989;DHT22;21192;40.182;44.516;2023-08-24T06:06:51;33.90;41.20
34989;DHT22;21192;40.182;44.516;2023-08-24T06:09:17;33.80;41.60
34989;DHT22;21192;40.182;44.516;2023-08-24T06:11:43;33.60;42.10
34989;DHT22;21192;40.182;44.516;2023-08-24T06:14:09;33.60;42.40
34989;DHT22;21192;40.182;44.516;2023-08-24T06:16:35;33.50;42.40
34989;DHT22;21192;40.182;44.516;2023-08-24T06:19:01;33.50;42.40
34989;DHT22;21192;40.182;44.516;2023-08-24T06:21:26;33.50;42.40
34989;DHT22;21192;40.182;44.516;2023-08-24T06:23:52;33.50;42.60
34989;DHT22;21192;40.182;44.516;2023-08-24T06:26:18;33.30;42.70
34989;DHT22;21192;40.182;44.516;2023-08-24T06:28:44;33.30;42.90
34989;DHT22;21192;40.182;44.516;2023-08-24T06:31:10;33.10;43.00
34989;DHT22;21192;40.182;44.516;2023-08-24T06:33:36;33.20;43.00
34989;DHT22;21192;40.182;44.516;2023-08-24T06:36:03;33.20;43.00
34989;DHT22;21192;40.182;44.516;2023-08-24T06:38:32;33.10;43.10
34989;DHT22;21192;40.182;44.516;2023-08-24T06:40:58;33.10;43.30
34989;DHT22;21192;40.182;44.516;2023-08-24T06:43:25;33.00;43.20
34989;DHT22;21192;40.182;44.516;2023-08-24T06:45:51;33.10;43.50
34989;DHT22;21192;40.182;44.516;2023-08-24T06:48:17;33.20;43.30
34989;DHT22;21192;40.182;44.516;2023-08-24T06:50:43;33.30;43.30
34989;DHT22;21192;40.182;44.516;2023-08-24T06:53:09;33.30;43.20
34989;DHT22;21192;40.182;44.516;2023-08-24T06:55:35;33.20;43.30
34989;DHT22;21192;40.182;44.516;2023-08-24T06:58:02;33.20;43.50
34989;DHT22;21192;40.182;44.516;2023-08-24T07:00:31;33.20;43.40
34989;DHT22;21192;40.182;44.516;2023-08-24T07:02:57;33.20;43.60
34989;DHT22;21192;40.182;44.516;2023-08-24T07:05:23;33.10;43.80
34989;DHT22;21192;40.182;44.516;2023-08-24T07:07:52;32.90;43.70
34989;DHT22;21192;40.182;44.516;2023-08-24T07:10:19;32.80;43.90
34989;DHT22;21192;40.182;44.516;2023-08-24T07:12:46;32.80;44.10
34989;DHT22;21192;40.182;44.516;2023-08-24T07:15:12;32.80;44.20
34989;DHT22;21192;40.182;44.516;2023-08-24T07:17:38;32.80;44.10
34989;DHT22;21192;40.182;44.516;2023-08-24T07:20:04;32.80;44.40
34989;DHT22;21192;40.182;44.516;2023-08-24T07:22:32;32.90;44.20
34989;DHT22;21192;40.182;44.516;2023-08-24T07:24:57;32.80;44.20
34989;DHT22;21192;40.182;44.516;2023-08-24T07:27:25;32.80;44.30
34989;DHT22;21192;40.182;44.516;2023-08-24T07:29:51;32.90;44.60
34989;DHT22;21192;40.182;44.516;2023-08-24T07:32:17;32.90;44.60
34989;DHT22;21192;40.182;44.516;2023-08-24T07:34:42;32.90;44.50
34989;DHT22;21192;40.182;44.516;2023-08-24T07:37:08;32.90;44.40
34989;DHT22;21192;40.182;44.516;2023-08-24T07:39:34;32.90;44.80
34989;DHT22;21192;40.182;44.516;2023-08-24T07:42:00;32.90;44.80
34989;DHT22;21192;40.182;44.516;2023-08-24T07:44:26;32.90;44.50
34989;DHT22;21192;40.182;44.516;2023-08-24T07:46:52;32.90;44.40
34989;DHT22;21192;40.182;44.516;2023-08-24T07:49:17;32.90;44.50
34989;DHT22;21192;40.182;44.516;2023-08-24T07:51:43;32.80;44.40
34989;DHT22;21192;40.182;44.516;2023-08-24T07:54:09;32.80;44.60
34989;DHT22;21192;40.182;44.516;2023-08-24T07:56:36;32.80;44.60
34989;DHT22;21192;40.182;44.516;2023-08-24T07:59:02;32.80;44.50
34989;DHT22;21192;40.182;44.516;2023-08-24T08:01:28;32.90;44.40
34989;DHT22;21192;40.182;44.516;2023-08-24T08:03:54;32.90;44.40
34989;DHT22;21192;40.182;44.516;2023-08-24T08:06:19;32.90;44.60
34989;DHT22;21192;40.182;44.516;2023-08-24T08:08:47;32.80;44.60
34989;DHT22;21192;40.182;44.516;2023-08-24T08:11:16;32.80;44.60
34989;DHT22;21192;40.182;44.516;2023-08-24T08:13:41;32.80;44.80
34989;DHT22;21192;40.182;44.516;2023-08-24T08:16:07;32.70;44.90
34989;DHT22;21192;40.182;44.516;2023-08-24T08:18:34;32.70;44.90
34989;DHT22;21192;40.182;44.516;2023-08-24T08:21:00;32.70;45.20
34989;DHT22;21192;40.182;44.516;2023-08-24T08:23:26;32.70;45.40
34989;DHT22;21192;40.182;44.516;2023-08-24T08:25:52;32.70;45.40
34989;DHT22;21192;40.182;44.516;2023-08-24T08:28:18;32.60;45.30
34989;DHT22;21192;40.182;44.516;2023-08-24T08:30:47;32.50;45.40
34989;DHT22;21192;40.182;44.516;2023-08-24T08:33:14;32.50;45.50
34989;DHT22;21192;40.182;44.516;2023-08-24T08:35:40;32.40;45.50
34989;DHT22;21192;40.182;44.516;2023-08-24T08:38:06;32.40;45.70
34989;DHT22;21192;40.182;44.516;2023-08-24T08:40:37;32.40;45.70
34989;DHT22;21192;40.182;44.516;2023-08-24T08:43:03;32.30;45.70
34989;DHT22;21192;40.182;44.516;2023-08-24T08:45:29;32.30;45.80
34989;DHT22;21192;40.182;44.516;2023-08-24T08:47:59;32.30;46.00
34989;DHT22;21192;40.182;44.516;2023-08-24T08:50:25;32.30;46.00
34989;DHT22;21192;40.182;44.516;2023-08-24T08:52:51;32.30;45.80
34989;DHT22;21192;40.182;44.516;2023-08-24T08:55:18;32.30;45.90
34989;DHT22;21192;40.182;44.516;2023-08-24T08:57:47;32.30;45.90
34989;DHT22;21192;40.182;44.516;2023-08-24T09:00:17;32.20;46.00
34989;DHT22;21192;40.182;44.516;2023-08-24T09:02:45;32.10;46.10
34989;DHT22;21192;40.182;44.516;2023-08-24T09:05:12;32.20;46.20
34989;DHT22;21192;40.182;44.516;2023-08-24T09:07:41;32.10;46.10
34989;DHT22;21192;40.182;44.516;2023-08-24T09:10:08;32.10;46.10
34989;DHT22;21192;40.182;44.516;2023-08-24T09:12:34;32.10;46.10
34989;DHT22;21192;40.182;44.516;2023-08-24T09:15:03;32.10;46.30
34989;DHT22;21192;40.182;44.516;2023-08-24T09:17:29;32.10;46.60
34989;DHT22;21192;40.182;44.516;2023-08-24T09:19:59;32.00;46.50
34989;DHT22;21192;40.182;44.516;2023-08-24T09:22:25;31.90;46.30
34989;DHT22;21192;40.182;44.516;2023-08-24T09:24:51;31.90;46.30
34989;DHT22;21192;40.182;44.516;2023-08-24T09:27:19;31.80;46.40
34989;DHT22;21192;40.182;44.516;2023-08-24T09:29:49;31.80;46.50
34989;DHT22;21192;40.182;44.516;2023-08-24T09:32:24;31.80;46.80
34989;DHT22;21192;40.182;44.516;2023-08-24T09:34:50;31.70;46.70
34989;DHT22;21192;40.182;44.516;2023-08-24T09:37:16;31.80;46.50
34989;DHT22;21192;40.182;44.516;2023-08-24T09:39:44;31.70;46.10
34989;DHT22;21192;40.182;44.516;2023-08-24T09:42:09;31.70;46.00
34989;DHT22;21192;40.182;44.516;2023-08-24T09:44:35;31.70;46.00
34989;DHT22;21192;40.182;44.516;2023-08-24T09:47:02;31.70;46.20
34989;DHT22;21192;40.182;44.516;2023-08-24T09:49:28;31.70;46.10
34989;DHT22;21192;40.182;44.516;2023-08-24T09:51:57;31.80;46.20
34989;DHT22;21192;40.182;44.516;2023-08-24T09:54:27;31.80;46.00
34989;DHT22;21192;40.182;44.516;2023-08-24T09:56:55;31.90;46.20
34989;DHT22;21192;40.182;44.516;2023-08-24T09:59:22;31.90;46.10
34989;DHT22;21192;40.182;44.516;2023-08-24T10:01:51;31.90;46.10
34989;DHT22;21192;40.182;44.516;2023-08-24T10:04:24;31.90;45.80
34989;DHT22;21192;40.182;44.516;2023-08-24T10:07:02;32.00;45.90
34989;DHT22;21192;40.182;44.516;2023-08-24T10:09:48;32.00;45.60
34989;DHT22;21192;40.182;44.516;2023-08-24T10:12:18;32.10;45.30
34989;DHT22;21192;40.182;44.516;2023-08-24T10:15:00;32.10;45.40
34989;DHT22;21192;40.182;44.516;2023-08-24T10:17:29;32.00;45.10
34989;DHT22;21192;40.182;44.516;2023-08-24T10:19:58;32.00;44.60
34989;DHT22;21192;40.182;44.516;2023-08-24T10:22:30;32.00;44.50
34989;DHT22;21192;40.182;44.516;2023-08-24T10:24:56;32.00;44.50
34989;DHT22;21192;40.182;44.516;2023-08-24T10:27:27;32.00;44.50
34989;DHT22;21192;40.182;44.516;2023-08-24T10:29:53;32.10;44.10
34989;DHT22;21192;40.182;44.516;2023-08-24T10:32:23;32.10;43.80
34989;DHT22;21192;40.182;44.516;2023-08-24T10:34:52;32.20;43.90
34989;DHT22;21192;40.182;44.516;2023-08-24T10:37:25;32.30;43.10
34989;DHT22;21192;40.182;44.516;2023-08-24T10:39:51;32.30;42.90
34989;DHT22;21192;40.182;44.516;2023-08-24T10:42:17;32.40;42.50
34989;DHT22;21192;40.182;44.516;2023-08-24T10:44:47;32.50;42.50
34989;DHT22;21192;40.182;44.516;2023-08-24T10:47:14;32.50;42.30
34989;DHT22;21192;40.182;44.516;2023-08-24T10:52:22;32.60;41.80
34989;DHT22;21192;40.182;44.516;2023-08-24T10:54:52;32.60;41.20
34989;DHT22;21192;40.182;44.516;2023-08-24T10:57:20;32.70;40.10
34989;DHT22;21192;40.182;44.516;2023-08-24T11:00:02;32.70;39.70
34989;DHT22;21192;40.182;44.516;2023-08-24T11:02:40;32.70;39.60
34989;DHT22;21192;40.182;44.516;2023-08-24T11:05:20;32.70;39.80
34989;DHT22;21192;40.182;44.516;2023-08-24T11:07:58;32.70;40.20
34989;DHT22;21192;40.182;44.516;2023-08-24T11:15:30;32.70;42.60
34989;DHT22;21192;40.182;44.516;2023-08-24T11:18:19;32.80;43.00
34989;DHT22;21192;40.182;44.516;2023-08-24T11:20:50;32.80;43.20
34989;DHT22;21192;40.182;44.516;2023-08-24T11:23:18;32.80;43.10
34989;DHT22;21192;40.182;44.516;2023-08-24T11:25:45;32.90;43.00
34989;DHT22;21192;40.182;44.516;2023-08-24T11:28:16;33.00;42.40
34989;DHT22;21192;40.182;44.516;2023-08-24T11:30:42;33.10;41.90
34989;DHT22;21192;40.182;44.516;2023-08-24T11:33:08;33.00;41.20
34989;DHT22;21192;40.182;44.516;2023-08-24T11:35:41;33.10;40.60
34989;DHT22;21192;40.182;44.516;2023-08-24T11:38:07;33.20;40.20
34989;DHT22;21192;40.182;44.516;2023-08-24T11:40:33;33.20;40.20
34989;DHT22;21192;40.182;44.516;2023-08-24T11:42:59;33.20;40.10
34989;DHT22;21192;40.182;44.516;2023-08-24T11:45:31;33.20;40.10
34989;DHT22;21192;40.182;44.516;2023-08-24T11:47:59;33.20;39.70
34989;DHT22;21192;40.182;44.516;2023-08-24T11:50:30;33.10;39.50
34989;DHT22;21192;40.182;44.516;2023-08-24T11:52:56;33.20;39.10
34989;DHT22;21192;40.182;44.516;2023-08-24T11:55:25;33.30;38.30
34989;DHT22;21192;40.182;44.516;2023-08-24T11:57:51;33.30;38.10
34989;DHT22;21192;40.182;44.516;2023-08-24T12:00:21;33.30;37.60
34989;DHT22;21192;40.182;44.516;2023-08-24T12:02:48;33.40;37.80
34989;DHT22;21192;40.182;44.516;2023-08-24T12:05:24;33.40;37.80
34989;DHT22;21192;40.182;44.516;2023-08-24T12:07:54;33.40;37.60
34989;DHT22;21192;40.182;44.516;2023-08-24T12:10:21;33.50;37.50
34989;DHT22;21192;40.182;44.516;2023-08-24T12:12:47;33.50;37.70
34989;DHT22;21192;40.182;44.516;2023-08-24T12:15:19;33.50;37.90
34989;DHT22;21192;40.182;44.516;2023-08-24T12:17:47;33.50;38.30
34989;DHT22;21192;40.182;44.516;2023-08-24T12:20:20;33.50;38.80
34989;DHT22;21192;40.182;44.516;2023-08-24T12:22:53;33.50;38.60
34989;DHT22;21192;40.182;44.516;2023-08-24T12:25:22;33.50;38.20
34989;DHT22;21192;40.182;44.516;2023-08-24T12:27:51;33.50;37.80
34989;DHT22;21192;40.182;44.516;2023-08-24T12:30:17;33.50;37.00
34989;DHT22;21192;40.182;44.516;2023-08-24T12:32:45;33.50;36.30
34989;DHT22;21192;40.182;44.516;2023-08-24T12:35:13;33.50;36.20
34989;DHT22;21192;40.182;44.516;2023-08-24T12:37:39;33.50;36.40
34989;DHT22;21192;40.182;44.516;2023-08-24T12:40:06;33.50;36.70
34989;DHT22;21192;40.182;44.516;2023-08-24T12:42:33;33.50;37.10
34989;DHT22;21192;40.182;44.516;2023-08-24T12:44:59;33.50;36.60
34989;DHT22;21192;40.182;44.516;2023-08-24T12:47:25;33.50;36.70
34989;DHT22;21192;40.182;44.516;2023-08-24T12:49:51;33.50;37.30
34989;DHT22;21192;40.182;44.516;2023-08-24T12:52:18;33.50;36.90
34989;DHT22;21192;40.182;44.516;2023-08-24T12:54:44;33.50;36.30
34989;DHT22;21192;40.182;44.516;2023-08-24T12:57:10;33.60;36.40
34989;DHT22;21192;40.182;44.516;2023-08-24T12:59:35;33.60;36.60
34989;DHT22;21192;40.182;44.516;2023-08-24T13:02:01;33.70;36.60
34989;DHT22;21192;40.182;44.516;2023-08-24T13:04:27;33.70;37.30
34989;DHT22;21192;40.182;44.516;2023-08-24T13:06:58;33.60;36.50
34989;DHT22;21192;40.182;44.516;2023-08-24T13:09:24;33.60;36.00
34989;DHT22;21192;40.182;44.516;2023-08-24T13:11:50;33.60;35.10
34989;DHT22;21192;40.182;44.516;2023-08-24T13:14:16;33.60;35.30
34989;DHT22;21192;40.182;44.516;2023-08-24T13:16:41;33.60;35.40
34989;DHT22;21192;40.182;44.516;2023-08-24T13:19:07;33.60;34.60
34989;DHT22;21192;40.182;44.516;2023-08-24T13:21:33;33.60;34.70
34989;DHT22;21192;40.182;44.516;2023-08-24T13:23:59;33.60;35.30
34989;DHT22;21192;40.182;44.516;2023-08-24T13:26:25;33.50;36.20
34989;DHT22;21192;40.182;44.516;2023-08-24T13:28:51;33.50;35.40
34989;DHT22;21192;40.182;44.516;2023-08-24T13:31:17;33.50;35.50
34989;DHT22;21192;40.182;44.516;2023-08-24T13:33:44;33.50;35.80
34989;DHT22;21192;40.182;44.516;2023-08-24T13:36:10;33.50;35.80
34989;DHT22;21192;40.182;44.516;2023-08-24T13:38:35;33.40;35.80
34989;DHT22;21192;40.182;44.516;2023-08-24T13:41:02;33.40;35.90
34989;DHT22;21192;40.182;44.516;2023-08-24T13:43:29;33.30;35.60
34989;DHT22;21192;40.182;44.516;2023-08-24T13:45:55;33.30;34.90
34989;DHT22;21192;40.182;44.516;2023-08-24T13:48:21;33.30;34.90
34989;DHT22;21192;40.182;44.516;2023-08-24T13:50:53;33.30;35.10
34989;DHT22;21192;40.182;44.516;2023-08-24T13:53:19;33.30;35.40
34989;DHT22;21192;40.182;44.516;2023-08-24T13:55:45;33.30;35.50
34989;DHT22;21192;40.182;44.516;2023-08-24T13:58:11;33.20;35.50
34989;DHT22;21192;40.182;44.516;2023-08-24T14:00:36;33.20;35.40
34989;DHT22;21192;40.182;44.516;2023-08-24T14:03:03;33.20;35.30
34989;DHT22;21192;40.182;44.516;2023-08-24T14:05:30;33.20;35.20
34989;DHT22;21192;40.182;44.516;2023-08-24T14:07:55;33.20;35.10
34989;DHT22;21192;40.182;44.516;2023-08-24T14:10:21;33.10;35.20
34989;DHT22;21192;40.182;44.516;2023-08-24T14:12:47;33.00;35.20
34989;DHT22;21192;40.182;44.516;2023-08-24T14:15:13;33.00;35.50
34989;DHT22;21192;40.182;44.516;2023-08-24T14:17:39;32.90;35.60
34989;DHT22;21192;40.182;44.516;2023-08-24T14:20:06;32.80;35.80
34989;DHT22;21192;40.182;44.516;2023-08-24T14:22:32;32.70;35.70
34989;DHT22;21192;40.182;44.516;2023-08-24T14:24:58;32.60;35.70
34989;DHT22;21192;40.182;44.516;2023-08-24T14:27:23;32.50;36.10
34989;DHT22;21192;40.182;44.516;2023-08-24T14:29:49;32.40;36.50
34989;DHT22;21192;40.182;44.516;2023-08-24T14:32:15;32.40;40.10
34989;DHT22;21192;40.182;44.516;2023-08-24T14:34:41;32.20;44.10
34989;DHT22;21192;40.182;44.516;2023-08-24T14:37:07;32.10;45.80
34989;DHT22;21192;40.182;44.516;2023-08-24T14:39:33;31.90;47.30
34989;DHT22;21192;40.182;44.516;2023-08-24T14:41:58;31.80;47.90
34989;DHT22;21192;40.182;44.516;2023-08-24T14:44:24;31.70;48.50
34989;DHT22;21192;40.182;44.516;2023-08-24T14:46:50;31.60;49.10
34989;DHT22;21192;40.182;44.516;2023-08-24T14:49:17;31.50;49.30
34989;DHT22;21192;40.182;44.516;2023-08-24T14:51:45;31.40;49.60
34989;DHT22;21192;40.182;44.516;2023-08-24T14:54:11;31.40;50.00
34989;DHT22;21192;40.182;44.516;2023-08-24T14:56:39;31.40;50.40
34989;DHT22;21192;40.182;44.516;2023-08-24T14:59:05;31.30;50.60
34989;DHT22;21192;40.182;44.516;2023-08-24T15:01:31;31.20;50.70
34989;DHT22;21192;40.182;44.516;2023-08-24T15:03:57;31.20;50.90
34989;DHT22;21192;40.182;44.516;2023-08-24T15:06:23;31.10;50.80
34989;DHT22;21192;40.182;44.516;2023-08-24T15:08:49;31.10;50.70
34989;DHT22;21192;40.182;44.516;2023-08-24T15:11:17;31.10;50.80
34989;DHT22;21192;40.182;44.516;2023-08-24T15:13:43;31.00;50.70
34989;DHT22;21192;40.182;44.516;2023-08-24T15:16:09;31.00;50.60
34989;DHT22;21192;40.182;44.516;2023-08-24T15:18:35;30.90;50.60
34989;DHT22;21192;40.182;44.516;2023-08-24T15:21:01;30.90;50.50
34989;DHT22;21192;40.182;44.516;2023-08-24T15:23:29;30.80;50.40
34989;DHT22;21192;40.182;44.516;2023-08-24T15:25:57;30.80;50.50
34989;DHT22;21192;40.182;44.516;2023-08-24T15:28:24;30.80;50.80
34989;DHT22;21192;40.182;44.516;2023-08-24T15:30:51;30.80;51.20